TIV680 KTEB-KFAY
Flight info
| Callsign | TIV680 |
|---|---|
| Flight time | 1h 23m |
| Altitude | 40000 |
| Route | ELVAE COL WHITE Q409 GUILD |
| Aircraft | C680/M-SDFGHRWY/SB1 |
Departure
| Time | 2026-05-07 01:13 |
|---|---|
| Airport | Teterboro Airport (KTEB) |
Arrival
| Time | 2026-05-07 02:36 |
|---|---|
| Airport | Fayetteville Regional Airport - Grannis Field (KFAY) |
| Time | Latitude | Longitude | Altitude | Speed | Heading |
|---|---|---|---|---|---|
| 2026-05-07 00:59 | 40.85523 | -74.06369 | 8 ft | 0 kts | 38° |
| 2026-05-07 01:07 | 40.85534 | -74.06357 | 4 ft | 7 kts | 43° |
| 2026-05-07 01:07 | 40.85534 | -74.06321 | 11 ft | 1 kts | 129° |
| 2026-05-07 01:07 | 40.85533 | -74.06319 | 11 ft | 0 kts | 130° |
| 2026-05-07 01:07 | 40.85528 | -74.06308 | 11 ft | 5 kts | 113° |
| 2026-05-07 01:08 | 40.85568 | -74.06237 | 4 ft | 14 kts | 36° |
| 2026-05-07 01:08 | 40.85598 | -74.06169 | 8 ft | 7 kts | 128° |
| 2026-05-07 01:08 | 40.85553 | -74.06106 | 10 ft | 10 kts | 122° |
| 2026-05-07 01:08 | 40.85600 | -74.06054 | 11 ft | 13 kts | 3° |
| 2026-05-07 01:09 | 40.85719 | -74.06046 | 9 ft | 20 kts | 2° |
| 2026-05-07 01:09 | 40.85784 | -74.06009 | 9 ft | 10 kts | 79° |
| 2026-05-07 01:09 | 40.85780 | -74.05900 | 11 ft | 13 kts | 95° |
| 2026-05-07 01:09 | 40.85782 | -74.05767 | 14 ft | 16 kts | 81° |
| 2026-05-07 01:10 | 40.85804 | -74.05598 | 14 ft | 21 kts | 79° |
| 2026-05-07 01:10 | 40.85814 | -74.05520 | 14 ft | 0 kts | 81° |
| 2026-05-07 01:12 | 40.85815 | -74.05519 | 14 ft | 2 kts | 81° |
| 2026-05-07 01:12 | 40.85800 | -74.05452 | 14 ft | 14 kts | 136° |
| 2026-05-07 01:13 | 40.85696 | -74.05526 | 14 ft | 35 kts | 229° |
| 2026-05-07 01:13 | 40.85332 | -74.06065 | 28 ft | 123 kts | 227° |
| 2026-05-07 01:13 | 40.84651 | -74.07058 | 662 ft | 163 kts | 226° |
| 2026-05-07 01:13 | 40.84066 | -74.08430 | 1466 ft | 191 kts | 256° |
| 2026-05-07 01:14 | 40.83988 | -74.10237 | 1627 ft | 191 kts | 271° |
| 2026-05-07 01:14 | 40.83939 | -74.11921 | 2808 ft | 178 kts | 264° |
| 2026-05-07 01:14 | 40.83731 | -74.13665 | 3902 ft | 214 kts | 259° |
| 2026-05-07 01:14 | 40.83398 | -74.15761 | 4017 ft | 238 kts | 258° |
| 2026-05-07 01:15 | 40.83060 | -74.17846 | 4014 ft | 230 kts | 258° |
| 2026-05-07 01:15 | 40.82741 | -74.19963 | 4011 ft | 238 kts | 259° |
| 2026-05-07 01:15 | 40.82422 | -74.22105 | 4013 ft | 237 kts | 259° |
| 2026-05-07 01:15 | 40.82098 | -74.24248 | 4018 ft | 239 kts | 258° |
| 2026-05-07 01:16 | 40.81773 | -74.26390 | 4009 ft | 236 kts | 258° |
| 2026-05-07 01:16 | 40.81479 | -74.28520 | 4012 ft | 238 kts | 262° |
| 2026-05-07 01:16 | 40.81385 | -74.30707 | 4010 ft | 238 kts | 267° |
| 2026-05-07 01:16 | 40.81343 | -74.32885 | 4025 ft | 237 kts | 267° |
| 2026-05-07 01:17 | 40.81314 | -74.35073 | 4111 ft | 236 kts | 267° |
| 2026-05-07 01:17 | 40.81067 | -74.37159 | 4344 ft | 238 kts | 248° |
| 2026-05-07 01:17 | 40.79960 | -74.38887 | 4577 ft | 251 kts | 221° |
| 2026-05-07 01:17 | 40.78361 | -74.39771 | 4809 ft | 255 kts | 196° |
| 2026-05-07 01:18 | 40.76543 | -74.39689 | 4985 ft | 266 kts | 179° |
| 2026-05-07 01:18 | 40.74680 | -74.39244 | 5029 ft | 276 kts | 175° |
| 2026-05-07 01:18 | 40.72816 | -74.38790 | 5014 ft | 267 kts | 178° |
| 2026-05-07 01:18 | 40.70993 | -74.38476 | 5047 ft | 264 kts | 181° |
| 2026-05-07 01:19 | 40.69153 | -74.38187 | 5007 ft | 268 kts | 179° |
| 2026-05-07 01:19 | 40.67333 | -74.37801 | 5008 ft | 263 kts | 177° |
| 2026-05-07 01:19 | 40.65518 | -74.37426 | 5010 ft | 266 kts | 179° |
| 2026-05-07 01:19 | 40.63676 | -74.37090 | 5012 ft | 266 kts | 179° |
| 2026-05-07 01:20 | 40.61853 | -74.36745 | 5014 ft | 264 kts | 178° |
| 2026-05-07 01:20 | 40.60031 | -74.36391 | 5013 ft | 267 kts | 178° |
| 2026-05-07 01:20 | 40.58192 | -74.36038 | 5014 ft | 265 kts | 178° |
| 2026-05-07 01:20 | 40.56376 | -74.35689 | 5013 ft | 263 kts | 179° |
| 2026-05-07 01:21 | 40.54562 | -74.35346 | 5008 ft | 264 kts | 179° |
| 2026-05-07 01:21 | 40.52737 | -74.34999 | 5009 ft | 265 kts | 179° |
| 2026-05-07 01:21 | 40.50908 | -74.34649 | 5010 ft | 266 kts | 179° |
| 2026-05-07 01:21 | 40.49084 | -74.34299 | 5009 ft | 265 kts | 179° |
| 2026-05-07 01:22 | 40.47257 | -74.33949 | 5012 ft | 267 kts | 179° |
| 2026-05-07 01:22 | 40.45406 | -74.33599 | 5017 ft | 268 kts | 178° |
| 2026-05-07 01:22 | 40.43575 | -74.33247 | 5010 ft | 266 kts | 178° |
| 2026-05-07 01:22 | 40.41725 | -74.32896 | 5014 ft | 269 kts | 179° |
| 2026-05-07 01:23 | 40.39901 | -74.32546 | 5014 ft | 261 kts | 178° |
| 2026-05-07 01:23 | 40.38103 | -74.32205 | 5013 ft | 263 kts | 179° |
| 2026-05-07 01:23 | 40.36283 | -74.31863 | 5020 ft | 265 kts | 179° |
| 2026-05-07 01:23 | 40.34451 | -74.31513 | 5024 ft | 266 kts | 178° |
| 2026-05-07 01:24 | 40.32622 | -74.31160 | 5028 ft | 266 kts | 178° |
| 2026-05-07 01:24 | 40.30784 | -74.30813 | 5029 ft | 267 kts | 178° |
| 2026-05-07 01:24 | 40.28943 | -74.30464 | 5024 ft | 268 kts | 178° |
| 2026-05-07 01:24 | 40.27100 | -74.30111 | 5023 ft | 266 kts | 178° |
| 2026-05-07 01:25 | 40.25234 | -74.29759 | 5803 ft | 269 kts | 179° |
| 2026-05-07 01:25 | 40.23402 | -74.29392 | 7324 ft | 267 kts | 179° |
| 2026-05-07 01:25 | 40.21534 | -74.29043 | 8525 ft | 275 kts | 180° |
| 2026-05-07 01:25 | 40.19625 | -74.28698 | 9828 ft | 279 kts | 180° |
| 2026-05-07 01:26 | 40.17690 | -74.28331 | 11064 ft | 283 kts | 180° |
| 2026-05-07 01:26 | 40.15733 | -74.27955 | 12260 ft | 287 kts | 180° |
| 2026-05-07 01:26 | 40.13742 | -74.27578 | 13430 ft | 291 kts | 181° |
| 2026-05-07 01:26 | 40.11718 | -74.27199 | 14449 ft | 297 kts | 181° |
| 2026-05-07 01:27 | 40.09650 | -74.26811 | 15391 ft | 304 kts | 181° |
| 2026-05-07 01:27 | 40.07533 | -74.26412 | 16317 ft | 310 kts | 181° |
| 2026-05-07 01:27 | 40.05381 | -74.26014 | 17222 ft | 315 kts | 182° |
| 2026-05-07 01:27 | 40.03202 | -74.25947 | 18021 ft | 313 kts | 193° |
| 2026-05-07 01:28 | 40.01058 | -74.26369 | 18812 ft | 309 kts | 202° |
| 2026-05-07 01:28 | 39.99040 | -74.27227 | 19658 ft | 302 kts | 212° |
| 2026-05-07 01:28 | 39.97196 | -74.28471 | 20475 ft | 296 kts | 221° |
| 2026-05-07 01:28 | 39.95534 | -74.30016 | 21323 ft | 292 kts | 226° |
| 2026-05-07 01:29 | 39.93898 | -74.31598 | 22148 ft | 294 kts | 226° |
| 2026-05-07 01:29 | 39.92237 | -74.33171 | 22957 ft | 296 kts | 226° |
| 2026-05-07 01:29 | 39.90567 | -74.34752 | 23690 ft | 298 kts | 227° |
| 2026-05-07 01:29 | 39.88896 | -74.36345 | 24364 ft | 298 kts | 227° |
| 2026-05-07 01:30 | 39.87222 | -74.37937 | 25019 ft | 298 kts | 228° |
| 2026-05-07 01:30 | 39.85544 | -74.39531 | 25604 ft | 300 kts | 228° |
| 2026-05-07 01:30 | 39.83873 | -74.41120 | 26018 ft | 304 kts | 227° |
| 2026-05-07 01:30 | 39.82179 | -74.42771 | 26522 ft | 303 kts | 230° |
| 2026-05-07 01:31 | 39.80633 | -74.44599 | 27038 ft | 298 kts | 235° |
| 2026-05-07 01:31 | 39.79193 | -74.46538 | 27535 ft | 299 kts | 236° |
| 2026-05-07 01:31 | 39.77736 | -74.48472 | 28024 ft | 301 kts | 236° |
| 2026-05-07 01:31 | 39.76269 | -74.50402 | 28632 ft | 298 kts | 236° |
| 2026-05-07 01:32 | 39.74824 | -74.52311 | 29288 ft | 294 kts | 236° |
| 2026-05-07 01:32 | 39.73402 | -74.54203 | 29906 ft | 291 kts | 236° |
| 2026-05-07 01:32 | 39.71991 | -74.56075 | 30410 ft | 289 kts | 237° |
| 2026-05-07 01:32 | 39.70584 | -74.57938 | 30863 ft | 288 kts | 237° |
| 2026-05-07 01:33 | 39.69188 | -74.59783 | 31307 ft | 286 kts | 237° |
| 2026-05-07 01:33 | 39.67800 | -74.61618 | 31771 ft | 284 kts | 237° |
| 2026-05-07 01:33 | 39.66420 | -74.63444 | 32202 ft | 283 kts | 237° |
| 2026-05-07 01:33 | 39.65043 | -74.65261 | 32627 ft | 281 kts | 237° |
| 2026-05-07 01:34 | 39.63676 | -74.67060 | 32938 ft | 279 kts | 237° |
| 2026-05-07 01:34 | 39.62314 | -74.68860 | 32998 ft | 280 kts | 237° |
| 2026-05-07 01:34 | 39.60949 | -74.70661 | 33302 ft | 279 kts | 237° |
| 2026-05-07 01:34 | 39.59591 | -74.72443 | 33488 ft | 276 kts | 238° |
| 2026-05-07 01:35 | 39.58239 | -74.74233 | 33624 ft | 279 kts | 238° |
| 2026-05-07 01:35 | 39.56884 | -74.76016 | 33949 ft | 277 kts | 238° |
| 2026-05-07 01:35 | 39.55534 | -74.77786 | 34207 ft | 276 kts | 238° |
| 2026-05-07 01:35 | 39.54187 | -74.79558 | 34450 ft | 275 kts | 238° |
| 2026-05-07 01:36 | 39.52841 | -74.81326 | 34680 ft | 275 kts | 238° |
| 2026-05-07 01:36 | 39.51498 | -74.83091 | 34921 ft | 275 kts | 239° |
| 2026-05-07 01:36 | 39.50161 | -74.84851 | 35107 ft | 274 kts | 239° |
| 2026-05-07 01:36 | 39.48824 | -74.86613 | 35410 ft | 274 kts | 239° |
| 2026-05-07 01:37 | 39.47487 | -74.88360 | 35687 ft | 273 kts | 239° |
| 2026-05-07 01:37 | 39.46147 | -74.90123 | 35858 ft | 276 kts | 239° |
| 2026-05-07 01:37 | 39.44799 | -74.91889 | 36142 ft | 276 kts | 239° |
| 2026-05-07 01:37 | 39.43452 | -74.93644 | 36513 ft | 274 kts | 240° |
| 2026-05-07 01:38 | 39.42113 | -74.95393 | 36909 ft | 273 kts | 240° |
| 2026-05-07 01:38 | 39.40779 | -74.97140 | 37310 ft | 272 kts | 241° |
| 2026-05-07 01:38 | 39.39450 | -74.98877 | 37697 ft | 271 kts | 241° |
| 2026-05-07 01:38 | 39.38122 | -75.00608 | 38107 ft | 271 kts | 242° |
| 2026-05-07 01:39 | 39.36798 | -75.02331 | 38558 ft | 269 kts | 242° |
| 2026-05-07 01:39 | 39.35481 | -75.04050 | 38875 ft | 269 kts | 242° |
| 2026-05-07 01:39 | 39.34161 | -75.05775 | 39146 ft | 270 kts | 241° |
| 2026-05-07 01:39 | 39.32838 | -75.07496 | 39520 ft | 269 kts | 241° |
| 2026-05-07 01:40 | 39.31520 | -75.09206 | 39845 ft | 268 kts | 241° |
| 2026-05-07 01:40 | 39.30193 | -75.10939 | 39891 ft | 277 kts | 240° |
| 2026-05-07 01:40 | 39.28729 | -75.12674 | 39865 ft | 290 kts | 237° |
| 2026-05-07 01:40 | 39.27218 | -75.14435 | 39885 ft | 297 kts | 237° |
| 2026-05-07 01:41 | 39.25669 | -75.16264 | 39890 ft | 306 kts | 237° |
| 2026-05-07 01:41 | 39.22437 | -75.20045 | 39893 ft | 321 kts | 236° |
| 2026-05-07 01:42 | 39.19055 | -75.23995 | 39873 ft | 334 kts | 236° |
| 2026-05-07 01:42 | 39.15550 | -75.28084 | 39875 ft | 346 kts | 236° |
| 2026-05-07 01:43 | 39.11929 | -75.32302 | 39878 ft | 356 kts | 235° |
| 2026-05-07 01:43 | 39.08207 | -75.36624 | 39863 ft | 366 kts | 234° |
| 2026-05-07 01:43 | 39.06176 | -75.38686 | 39864 ft | 378 kts | 229° |
| 2026-05-07 01:44 | 39.03938 | -75.40553 | 39866 ft | 390 kts | 225° |
| 2026-05-07 01:44 | 38.98907 | -75.43541 | 39877 ft | 408 kts | 215° |
| 2026-05-07 01:45 | 38.93275 | -75.45286 | 39878 ft | 428 kts | 204° |
| 2026-05-07 01:45 | 38.87304 | -75.46096 | 39882 ft | 431 kts | 202° |
| 2026-05-07 01:46 | 38.81374 | -75.46940 | 39889 ft | 432 kts | 202° |
| 2026-05-07 01:46 | 38.75376 | -75.47752 | 39898 ft | 434 kts | 201° |
| 2026-05-07 01:47 | 38.69366 | -75.48583 | 39899 ft | 435 kts | 201° |
| 2026-05-07 01:47 | 38.63429 | -75.49639 | 39874 ft | 417 kts | 210° |
| 2026-05-07 01:47 | 38.60797 | -75.50918 | 39880 ft | 395 kts | 221° |
| 2026-05-07 01:48 | 38.58471 | -75.52670 | 39883 ft | 381 kts | 228° |
| 2026-05-07 01:48 | 38.54556 | -75.56982 | 39888 ft | 369 kts | 235° |
| 2026-05-07 01:49 | 38.50584 | -75.61262 | 39892 ft | 381 kts | 229° |
| 2026-05-07 01:49 | 38.46317 | -75.65258 | 39844 ft | 378 kts | 231° |
| 2026-05-07 01:50 | 38.42212 | -75.69419 | 39892 ft | 379 kts | 231° |
| 2026-05-07 01:50 | 38.38007 | -75.73495 | 39893 ft | 380 kts | 231° |
| 2026-05-07 01:51 | 38.33832 | -75.77622 | 39893 ft | 381 kts | 231° |
| 2026-05-07 01:51 | 38.29637 | -75.81718 | 39902 ft | 376 kts | 231° |
| 2026-05-07 01:52 | 38.25515 | -75.85764 | 39880 ft | 374 kts | 231° |
| 2026-05-07 01:52 | 38.21385 | -75.89801 | 39893 ft | 375 kts | 231° |
| 2026-05-07 01:53 | 38.17239 | -75.93847 | 39898 ft | 376 kts | 231° |
| 2026-05-07 01:53 | 38.13075 | -75.97907 | 39898 ft | 378 kts | 231° |
| 2026-05-07 01:54 | 38.08898 | -76.01971 | 39909 ft | 379 kts | 231° |
| 2026-05-07 01:54 | 38.04710 | -76.06041 | 39897 ft | 379 kts | 231° |
| 2026-05-07 01:55 | 38.00521 | -76.10107 | 39902 ft | 380 kts | 231° |
| 2026-05-07 01:55 | 37.96319 | -76.14178 | 39904 ft | 381 kts | 231° |
| 2026-05-07 01:56 | 37.92121 | -76.18234 | 39918 ft | 376 kts | 231° |
| 2026-05-07 01:56 | 37.88679 | -76.21566 | 39917 ft | 375 kts | 231° |
| 2026-05-07 01:57 | 37.84521 | -76.25580 | 39888 ft | 376 kts | 231° |
| 2026-05-07 01:57 | 37.80351 | -76.29596 | 39899 ft | 377 kts | 231° |
| 2026-05-07 01:58 | 37.76169 | -76.33621 | 39905 ft | 378 kts | 231° |
| 2026-05-07 01:58 | 37.71974 | -76.37651 | 39897 ft | 379 kts | 231° |
| 2026-05-07 01:59 | 37.67763 | -76.41691 | 39902 ft | 381 kts | 231° |
| 2026-05-07 01:59 | 37.63541 | -76.45735 | 39905 ft | 381 kts | 231° |
| 2026-05-07 02:00 | 37.59309 | -76.49784 | 39922 ft | 382 kts | 231° |
| 2026-05-07 02:00 | 37.55111 | -76.53791 | 39926 ft | 375 kts | 231° |
| 2026-05-07 02:01 | 37.50957 | -76.57762 | 39931 ft | 376 kts | 231° |
| 2026-05-07 02:01 | 37.46776 | -76.61740 | 39929 ft | 377 kts | 231° |
| 2026-05-07 02:02 | 37.42582 | -76.65728 | 39896 ft | 378 kts | 231° |
| 2026-05-07 02:02 | 37.38387 | -76.69713 | 39923 ft | 379 kts | 231° |
| 2026-05-07 02:03 | 37.34175 | -76.73710 | 39911 ft | 380 kts | 231° |
| 2026-05-07 02:03 | 37.29945 | -76.77713 | 39921 ft | 381 kts | 231° |
| 2026-05-07 02:04 | 37.25714 | -76.81728 | 39905 ft | 381 kts | 231° |
| 2026-05-07 02:04 | 37.21504 | -76.85710 | 39888 ft | 382 kts | 231° |
| 2026-05-07 02:05 | 37.17235 | -76.89723 | 39921 ft | 378 kts | 231° |
| 2026-05-07 02:05 | 37.13072 | -76.93651 | 39922 ft | 377 kts | 231° |
| 2026-05-07 02:06 | 37.08874 | -76.97601 | 39928 ft | 378 kts | 231° |
| 2026-05-07 02:06 | 37.04656 | -77.01558 | 39925 ft | 379 kts | 231° |
| 2026-05-07 02:07 | 37.00437 | -77.05515 | 39885 ft | 380 kts | 231° |
| 2026-05-07 02:07 | 36.94090 | -77.11445 | 39923 ft | 381 kts | 231° |
| 2026-05-07 02:08 | 36.89841 | -77.15416 | 39925 ft | 382 kts | 231° |
| 2026-05-07 02:08 | 36.85580 | -77.19384 | 39922 ft | 383 kts | 230° |
| 2026-05-07 02:09 | 36.81306 | -77.23357 | 39958 ft | 383 kts | 231° |
| 2026-05-07 02:09 | 36.77071 | -77.27305 | 39955 ft | 376 kts | 231° |
| 2026-05-07 02:10 | 36.72877 | -77.31224 | 39961 ft | 378 kts | 231° |
| 2026-05-07 02:10 | 36.68649 | -77.35129 | 39966 ft | 379 kts | 231° |
| 2026-05-07 02:11 | 36.64422 | -77.39051 | 39973 ft | 379 kts | 231° |
| 2026-05-07 02:11 | 36.62304 | -77.41013 | 39832 ft | 382 kts | 231° |
| 2026-05-07 02:11 | 36.60188 | -77.42962 | 39299 ft | 377 kts | 231° |
| 2026-05-07 02:12 | 36.58082 | -77.44904 | 38800 ft | 374 kts | 231° |
| 2026-05-07 02:12 | 36.55992 | -77.46840 | 38223 ft | 373 kts | 231° |
| 2026-05-07 02:12 | 36.53915 | -77.48760 | 37746 ft | 372 kts | 231° |
| 2026-05-07 02:12 | 36.51837 | -77.50677 | 37244 ft | 373 kts | 231° |
| 2026-05-07 02:13 | 36.49745 | -77.52608 | 36761 ft | 375 kts | 231° |
| 2026-05-07 02:13 | 36.47644 | -77.54544 | 36269 ft | 378 kts | 230° |
| 2026-05-07 02:13 | 36.45526 | -77.56493 | 35772 ft | 380 kts | 230° |
| 2026-05-07 02:13 | 36.43392 | -77.58457 | 35270 ft | 383 kts | 230° |
| 2026-05-07 02:14 | 36.41222 | -77.60411 | 34758 ft | 390 kts | 226° |
| 2026-05-07 02:14 | 36.38787 | -77.62027 | 34231 ft | 401 kts | 219° |
| 2026-05-07 02:14 | 36.36342 | -77.63623 | 33718 ft | 397 kts | 221° |
| 2026-05-07 02:14 | 36.33961 | -77.65370 | 33148 ft | 395 kts | 225° |
| 2026-05-07 02:15 | 36.31790 | -77.67425 | 32627 ft | 392 kts | 230° |
| 2026-05-07 02:15 | 36.29748 | -77.69663 | 32109 ft | 393 kts | 231° |
| 2026-05-07 02:15 | 36.27604 | -77.71817 | 31592 ft | 399 kts | 228° |
| 2026-05-07 02:15 | 36.25470 | -77.74017 | 31198 ft | 398 kts | 229° |
| 2026-05-07 02:16 | 36.23272 | -77.76158 | 30708 ft | 408 kts | 225° |
| 2026-05-07 02:16 | 36.20941 | -77.78211 | 30169 ft | 411 kts | 223° |
| 2026-05-07 02:16 | 36.18614 | -77.80262 | 29586 ft | 411 kts | 224° |
| 2026-05-07 02:16 | 36.16317 | -77.82409 | 29027 ft | 415 kts | 225° |
| 2026-05-07 02:17 | 36.14023 | -77.84575 | 28474 ft | 415 kts | 224° |
| 2026-05-07 02:17 | 36.11690 | -77.86675 | 27887 ft | 415 kts | 223° |
| 2026-05-07 02:17 | 36.09340 | -77.88757 | 27359 ft | 416 kts | 223° |
| 2026-05-07 02:17 | 36.07038 | -77.90865 | 26850 ft | 409 kts | 224° |
| 2026-05-07 02:18 | 36.04778 | -77.92988 | 26453 ft | 408 kts | 224° |
| 2026-05-07 02:18 | 36.02571 | -77.95110 | 26102 ft | 407 kts | 225° |
| 2026-05-07 02:18 | 36.00366 | -77.97269 | 25964 ft | 399 kts | 225° |
| 2026-05-07 02:18 | 35.98217 | -77.99405 | 25961 ft | 396 kts | 226° |
| 2026-05-07 02:19 | 35.96080 | -78.01585 | 25632 ft | 404 kts | 227° |
| 2026-05-07 02:19 | 35.93939 | -78.03830 | 25158 ft | 401 kts | 227° |
| 2026-05-07 02:19 | 35.91846 | -78.06060 | 24656 ft | 396 kts | 227° |
| 2026-05-07 02:19 | 35.89563 | -78.08031 | 24133 ft | 404 kts | 219° |
| 2026-05-07 02:20 | 35.87108 | -78.09751 | 23656 ft | 406 kts | 216° |
| 2026-05-07 02:20 | 35.84661 | -78.11423 | 23123 ft | 399 kts | 217° |
| 2026-05-07 02:20 | 35.82316 | -78.13230 | 22576 ft | 394 kts | 222° |
| 2026-05-07 02:20 | 35.80175 | -78.15266 | 22042 ft | 385 kts | 226° |
| 2026-05-07 02:21 | 35.78103 | -78.17354 | 21503 ft | 385 kts | 225° |
| 2026-05-07 02:21 | 35.75953 | -78.19314 | 20980 ft | 384 kts | 222° |
| 2026-05-07 02:21 | 35.73770 | -78.21180 | 20491 ft | 381 kts | 222° |
| 2026-05-07 02:21 | 35.71633 | -78.23088 | 20014 ft | 378 kts | 224° |
| 2026-05-07 02:22 | 35.69547 | -78.25027 | 19541 ft | 374 kts | 224° |
| 2026-05-07 02:22 | 35.67467 | -78.26936 | 19065 ft | 373 kts | 223° |
| 2026-05-07 02:22 | 35.65368 | -78.28817 | 18593 ft | 376 kts | 223° |
| 2026-05-07 02:22 | 35.63257 | -78.30705 | 18129 ft | 373 kts | 223° |
| 2026-05-07 02:23 | 35.61183 | -78.32578 | 17606 ft | 368 kts | 223° |
| 2026-05-07 02:23 | 35.59133 | -78.34438 | 17092 ft | 365 kts | 223° |
| 2026-05-07 02:23 | 35.57091 | -78.36283 | 16588 ft | 363 kts | 223° |
| 2026-05-07 02:23 | 35.55063 | -78.38106 | 16094 ft | 361 kts | 222° |
| 2026-05-07 02:24 | 35.53043 | -78.39922 | 15605 ft | 359 kts | 222° |
| 2026-05-07 02:24 | 35.51040 | -78.41727 | 15018 ft | 355 kts | 222° |
| 2026-05-07 02:24 | 35.49066 | -78.43502 | 14430 ft | 350 kts | 222° |
| 2026-05-07 02:24 | 35.47110 | -78.45260 | 13854 ft | 345 kts | 221° |
| 2026-05-07 02:25 | 35.45217 | -78.46954 | 13220 ft | 329 kts | 221° |
| 2026-05-07 02:25 | 35.43425 | -78.48553 | 12588 ft | 310 kts | 221° |
| 2026-05-07 02:25 | 35.41721 | -78.50062 | 11966 ft | 295 kts | 221° |
| 2026-05-07 02:25 | 35.40100 | -78.51508 | 11359 ft | 283 kts | 221° |
| 2026-05-07 02:26 | 35.38544 | -78.52912 | 10787 ft | 274 kts | 221° |
| 2026-05-07 02:26 | 35.37025 | -78.54278 | 10202 ft | 267 kts | 221° |
| 2026-05-07 02:26 | 35.35563 | -78.55581 | 10007 ft | 248 kts | 221° |
| 2026-05-07 02:26 | 35.34236 | -78.56759 | 10005 ft | 226 kts | 222° |
| 2026-05-07 02:27 | 35.33005 | -78.57866 | 10001 ft | 215 kts | 223° |
| 2026-05-07 02:27 | 35.31816 | -78.58934 | 10000 ft | 209 kts | 223° |
| 2026-05-07 02:27 | 35.30644 | -78.59987 | 9999 ft | 209 kts | 223° |
| 2026-05-07 02:27 | 35.29471 | -78.61037 | 9998 ft | 209 kts | 223° |
| 2026-05-07 02:28 | 35.28295 | -78.62086 | 9999 ft | 211 kts | 222° |
| 2026-05-07 02:28 | 35.26953 | -78.62846 | 9996 ft | 222 kts | 205° |
| 2026-05-07 02:28 | 35.25444 | -78.63294 | 9995 ft | 224 kts | 201° |
| 2026-05-07 02:28 | 35.23938 | -78.63695 | 9822 ft | 221 kts | 200° |
| 2026-05-07 02:29 | 35.22426 | -78.64099 | 9366 ft | 223 kts | 200° |
| 2026-05-07 02:29 | 35.20948 | -78.64596 | 8965 ft | 215 kts | 211° |
| 2026-05-07 02:29 | 35.19865 | -78.65746 | 8457 ft | 204 kts | 236° |
| 2026-05-07 02:29 | 35.19034 | -78.67095 | 7757 ft | 198 kts | 236° |
| 2026-05-07 02:30 | 35.18136 | -78.68384 | 6988 ft | 199 kts | 232° |
| 2026-05-07 02:30 | 35.17182 | -78.69593 | 6293 ft | 196 kts | 231° |
| 2026-05-07 02:30 | 35.16240 | -78.70772 | 5564 ft | 192 kts | 230° |
| 2026-05-07 02:30 | 35.15322 | -78.71942 | 4923 ft | 186 kts | 229° |
| 2026-05-07 02:31 | 35.14477 | -78.73019 | 4778 ft | 163 kts | 229° |
| 2026-05-07 02:31 | 35.13749 | -78.73947 | 4679 ft | 144 kts | 230° |
| 2026-05-07 02:31 | 35.13056 | -78.74838 | 4339 ft | 145 kts | 229° |
| 2026-05-07 02:31 | 35.12362 | -78.75725 | 4060 ft | 143 kts | 229° |
| 2026-05-07 02:32 | 35.11683 | -78.76593 | 3634 ft | 141 kts | 228° |
| 2026-05-07 02:32 | 35.11003 | -78.77462 | 3154 ft | 141 kts | 227° |
| 2026-05-07 02:32 | 35.10327 | -78.78323 | 2695 ft | 141 kts | 227° |
| 2026-05-07 02:32 | 35.09646 | -78.79194 | 2401 ft | 139 kts | 226° |
| 2026-05-07 02:33 | 35.08983 | -78.80037 | 2197 ft | 139 kts | 226° |
| 2026-05-07 02:33 | 35.08297 | -78.80911 | 2020 ft | 145 kts | 226° |
| 2026-05-07 02:33 | 35.07604 | -78.81794 | 1834 ft | 142 kts | 225° |
| 2026-05-07 02:33 | 35.06839 | -78.82537 | 1647 ft | 144 kts | 212° |
| 2026-05-07 02:34 | 35.05973 | -78.83151 | 1460 ft | 142 kts | 211° |
| 2026-05-07 02:34 | 35.05160 | -78.83749 | 1279 ft | 135 kts | 212° |
| 2026-05-07 02:34 | 35.04389 | -78.84321 | 1116 ft | 119 kts | 212° |
| 2026-05-07 02:34 | 35.03741 | -78.84800 | 976 ft | 103 kts | 209° |
| 2026-05-07 02:35 | 35.03123 | -78.85246 | 855 ft | 105 kts | 208° |
| 2026-05-07 02:35 | 35.02482 | -78.85715 | 726 ft | 108 kts | 210° |
| 2026-05-07 02:35 | 35.01847 | -78.86193 | 584 ft | 108 kts | 210° |
| 2026-05-07 02:35 | 35.01206 | -78.86667 | 430 ft | 108 kts | 208° |
| 2026-05-07 02:36 | 35.00578 | -78.87134 | 282 ft | 103 kts | 210° |
| 2026-05-07 02:36 | 34.99965 | -78.87582 | 202 ft | 101 kts | 209° |
| 2026-05-07 02:36 | 34.99431 | -78.87970 | 184 ft | 76 kts | 211° |
| 2026-05-07 02:36 | 34.99099 | -78.88213 | 192 ft | 29 kts | 211° |
| 2026-05-07 02:37 | 34.99018 | -78.88310 | 184 ft | 12 kts | 269° |
| 2026-05-07 02:37 | 34.99050 | -78.88386 | 184 ft | 1 kts | 303° |
| 2026-05-07 02:37 | 34.99086 | -78.88379 | 184 ft | 11 kts | 33° |
| 2026-05-07 02:37 | 34.99152 | -78.88365 | 188 ft | 10 kts | 306° |
| 2026-05-07 02:38 | 34.99191 | -78.88444 | 182 ft | 10 kts | 301° |
| 2026-05-07 02:38 | 34.99230 | -78.88448 | 184 ft | 8 kts | 30° |
| 2026-05-07 02:38 | 34.99238 | -78.88443 | 184 ft | 0 kts | 30° |